createdAt,value
2019-01-20T00:01:31.872Z,27.00
2019-01-20T00:04:01.046Z,31.30
2019-01-20T00:06:30.163Z,27.15
2019-01-20T00:08:59.256Z,30.17
2019-01-20T00:11:28.464Z,26.12
2019-01-20T00:13:57.568Z,26.15
2019-01-20T00:16:26.748Z,24.87
2019-01-20T00:18:55.894Z,24.27
2019-01-20T00:21:25.073Z,25.43
2019-01-20T00:23:54.202Z,26.90
2019-01-20T00:26:23.337Z,26.87
2019-01-20T00:28:52.481Z,24.85
2019-01-20T00:31:21.579Z,26.02
2019-01-20T00:33:50.770Z,25.15
2019-01-20T00:36:19.890Z,24.20
2019-01-20T00:38:49.057Z,30.20
2019-01-20T00:41:24.028Z,26.02
2019-01-20T00:43:49.117Z,29.75
2019-01-20T00:46:18.324Z,25.00
2019-01-20T00:48:47.480Z,25.27
2019-01-20T00:51:16.915Z,24.82
2019-01-20T00:53:46.028Z,24.47
2019-01-20T00:56:15.128Z,27.67
2019-01-20T00:58:44.243Z,24.07
2019-01-20T01:01:13.565Z,26.80
2019-01-20T01:03:42.914Z,20.02
2019-01-20T01:06:12.086Z,25.30
2019-01-20T01:08:41.303Z,21.10
2019-01-20T01:11:10.434Z,26.12
2019-01-20T01:13:39.590Z,25.48
2019-01-20T01:16:08.704Z,24.00
2019-01-20T01:18:37.835Z,25.60
2019-01-20T01:21:07.018Z,27.50
2019-01-20T01:23:36.149Z,20.77
2019-01-20T01:26:05.307Z,23.75
2019-01-20T01:28:34.497Z,23.27
2019-01-20T01:31:03.731Z,26.07
2019-01-20T01:33:32.845Z,22.02
2019-01-20T01:36:02.003Z,23.85
2019-01-20T01:38:31.104Z,28.10
2019-01-20T01:41:00.338Z,23.70
2019-01-20T01:43:29.479Z,21.87
2019-01-20T01:45:58.645Z,24.60
2019-01-20T01:48:27.759Z,22.75
2019-01-20T01:50:56.933Z,21.68
2019-01-20T01:53:26.031Z,24.25
2019-01-20T01:55:55.234Z,22.65
2019-01-20T01:58:24.395Z,27.30
2019-01-20T02:00:53.649Z,22.98
2019-01-20T02:03:22.740Z,27.15
2019-01-20T02:05:51.867Z,28.90
2019-01-20T02:08:21.117Z,27.60
2019-01-20T02:10:50.296Z,25.48
2019-01-20T02:13:19.489Z,27.93
2019-01-20T02:15:48.681Z,29.82
2019-01-20T02:18:17.824Z,26.45
2019-01-20T02:20:47.012Z,25.35
2019-01-20T02:23:16.157Z,27.13
2019-01-20T02:25:45.336Z,25.00
2019-01-20T02:28:14.453Z,22.67
2019-01-20T02:30:43.569Z,26.15
2019-01-20T02:33:12.677Z,28.38
2019-01-20T02:35:41.954Z,31.97
2019-01-20T02:38:11.189Z,24.37
2019-01-20T02:40:40.356Z,23.52
2019-01-20T02:43:09.521Z,31.05
2019-01-20T02:45:38.683Z,26.12
2019-01-20T02:48:07.787Z,28.60
2019-01-20T02:50:37.220Z,33.30
2019-01-20T02:53:06.392Z,26.68
2019-01-20T02:55:35.558Z,26.65
2019-01-20T02:58:04.818Z,22.95
2019-01-20T03:00:34.124Z,24.02
2019-01-20T03:03:03.318Z,27.07
2019-01-20T03:05:32.408Z,29.52
2019-01-20T03:08:01.493Z,29.35
2019-01-20T03:10:30.668Z,28.65
2019-01-20T03:12:59.767Z,27.10
2019-01-20T03:15:29.363Z,25.20
2019-01-20T03:17:58.536Z,27.52
2019-01-20T03:20:27.750Z,27.17
2019-01-20T03:22:56.964Z,28.62
2019-01-20T03:25:26.161Z,30.70
2019-01-20T03:27:55.331Z,24.30
2019-01-20T03:30:24.672Z,28.27
2019-01-20T03:32:53.868Z,24.57
2019-01-20T03:35:25.128Z,28.25
2019-01-20T03:37:54.360Z,23.55
2019-01-20T03:40:23.610Z,23.55
2019-01-20T03:42:52.840Z,27.85
2019-01-20T03:45:22.079Z,27.70
2019-01-20T03:47:51.233Z,25.75
2019-01-20T03:50:20.418Z,27.58
2019-01-20T03:52:49.743Z,26.00
2019-01-20T03:55:19.119Z,26.45
2019-01-20T03:57:48.363Z,28.32
2019-01-20T04:00:22.274Z,27.22
2019-01-20T04:02:59.715Z,25.65
2019-01-20T04:05:28.916Z,26.62
2019-01-20T04:07:58.064Z,26.97
2019-01-20T04:10:27.332Z,26.82
2019-01-20T04:12:57.612Z,27.02
2019-01-20T04:15:26.724Z,27.32
2019-01-20T04:17:55.897Z,25.37
2019-01-20T04:20:25.072Z,26.40
2019-01-20T04:22:54.150Z,29.52
2019-01-20T04:25:23.344Z,27.48
2019-01-20T04:27:52.440Z,25.92
2019-01-20T04:30:21.695Z,21.80
2019-01-20T04:32:50.808Z,28.98
2019-01-20T04:35:19.989Z,31.82
2019-01-20T04:37:49.072Z,27.20
2019-01-20T04:40:20.228Z,24.90
2019-01-20T04:42:49.349Z,28.30
2019-01-20T04:45:18.587Z,30.88
2019-01-20T04:47:47.826Z,29.37
2019-01-20T04:50:19.203Z,30.17
2019-01-20T04:52:48.351Z,26.87
2019-01-20T04:55:17.703Z,27.37
2019-01-20T04:57:49.923Z,31.55
2019-01-20T05:00:20.802Z,27.70
2019-01-20T05:02:49.952Z,29.50
2019-01-20T05:05:19.536Z,26.10
2019-01-20T05:07:48.687Z,29.60
2019-01-20T05:10:17.992Z,27.35
2019-01-20T05:12:47.167Z,27.27
2019-01-20T05:15:18.206Z,25.50
2019-01-20T05:17:47.525Z,26.57
2019-01-20T05:20:17.796Z,27.55
2019-01-20T05:22:47.036Z,28.87
2019-01-20T05:25:16.782Z,27.98
2019-01-20T05:27:46.953Z,31.97
2019-01-20T05:30:18.546Z,28.75
2019-01-20T05:32:47.732Z,32.08
2019-01-20T05:35:16.929Z,28.90
2019-01-20T05:37:46.093Z,31.40
2019-01-20T05:40:17.428Z,31.07
2019-01-20T05:42:46.985Z,31.40
2019-01-20T05:45:18.257Z,30.60
2019-01-20T05:47:47.420Z,27.55
2019-01-20T05:50:16.768Z,28.25
2019-01-20T05:52:45.945Z,25.12
2019-01-20T05:55:15.248Z,36.03
2019-01-20T05:57:44.580Z,35.05
2019-01-20T06:00:19.529Z,28.12
2019-01-20T06:02:48.771Z,26.97
2019-01-20T06:05:17.873Z,28.65
2019-01-20T06:07:47.003Z,27.35
2019-01-20T06:10:16.226Z,31.45
2019-01-20T06:12:45.444Z,28.10
2019-01-20T06:15:16.455Z,22.00
2019-01-20T06:17:45.701Z,27.22
2019-01-20T06:20:15.314Z,25.27
2019-01-20T06:22:44.497Z,27.80
2019-01-20T06:25:13.852Z,32.42
2019-01-20T06:27:43.318Z,34.75
2019-01-20T06:30:19.243Z,29.40
2019-01-20T06:32:48.336Z,27.37
2019-01-20T06:35:17.508Z,29.87
2019-01-20T06:37:46.697Z,26.23
2019-01-20T06:40:16.107Z,28.75
2019-01-20T06:42:45.335Z,28.92
2019-01-20T06:45:14.679Z,29.50
2019-01-20T06:47:43.843Z,26.40
2019-01-20T06:50:13.812Z,27.77
2019-01-20T06:52:42.993Z,31.30
2019-01-20T06:55:12.924Z,28.00
2019-01-20T06:57:42.244Z,29.65
2019-01-20T07:00:14.671Z,27.17
2019-01-20T07:02:43.843Z,30.77
2019-01-20T07:05:13.211Z,28.38
2019-01-20T07:07:42.452Z,25.95
2019-01-20T07:10:12.469Z,27.35
2019-01-20T07:12:41.556Z,26.25
2019-01-20T07:15:16.106Z,27.27
2019-01-20T07:17:45.284Z,30.92
2019-01-20T07:20:14.678Z,29.35
2019-01-20T07:22:43.860Z,33.50
2019-01-20T07:25:13.279Z,28.92
2019-01-20T07:27:42.476Z,31.90
2019-01-20T07:30:17.098Z,26.68
2019-01-20T07:32:46.450Z,30.30
2019-01-20T07:36:33.871Z,30.92
2019-01-20T07:39:09.860Z,30.05
2019-01-20T07:42:52.150Z,28.95
2019-01-20T07:45:55.899Z,28.70
2019-01-20T07:48:43.123Z,24.20
2019-01-20T07:51:13.373Z,29.75
2019-01-20T07:53:42.489Z,32.58
2019-01-20T07:56:12.689Z,27.00
2019-01-20T07:58:41.883Z,25.97
2019-01-20T08:01:11.372Z,26.50
2019-01-20T08:03:40.574Z,31.55
2019-01-20T08:06:09.748Z,27.35
2019-01-20T08:08:41.641Z,26.73
2019-01-20T08:11:10.854Z,24.90
2019-01-20T08:13:39.992Z,26.93
2019-01-20T08:16:09.227Z,25.95
2019-01-20T08:18:38.499Z,30.55
2019-01-20T08:21:07.803Z,27.93
2019-01-20T08:23:36.972Z,30.35
2019-01-20T08:26:06.228Z,26.55
2019-01-20T08:28:36.672Z,26.97
2019-01-20T08:31:05.778Z,27.05
2019-01-20T08:33:34.869Z,28.75
2019-01-20T08:36:04.328Z,32.23
2019-01-20T08:38:35.074Z,29.25
2019-01-20T08:41:04.521Z,27.82
2019-01-20T08:43:34.372Z,31.05
2019-01-20T08:46:23.668Z,30.75
2019-01-20T08:48:52.977Z,28.70
2019-01-20T08:51:23.337Z,30.88
2019-01-20T08:53:52.461Z,31.82
2019-01-20T08:56:21.642Z,27.85
2019-01-20T08:58:50.785Z,30.20
2019-01-20T09:01:20.013Z,28.38
2019-01-20T09:03:49.117Z,27.37
2019-01-20T09:06:18.219Z,29.27
2019-01-20T09:08:47.448Z,29.20
2019-01-20T09:11:16.640Z,27.90
2019-01-20T09:13:46.113Z,34.03
2019-01-20T09:16:15.651Z,28.95
2019-01-20T09:18:44.731Z,30.55
2019-01-20T09:21:13.840Z,31.62
2019-01-20T09:23:43.715Z,43.92
2019-01-20T09:26:12.896Z,30.17
2019-01-20T09:28:42.006Z,28.73
2019-01-20T09:31:11.178Z,32.95
2019-01-20T09:33:40.298Z,30.37
2019-01-20T09:36:09.534Z,37.20
2019-01-20T09:38:38.804Z,34.25
2019-01-20T09:41:07.896Z,32.67
2019-01-20T09:43:36.988Z,32.88
2019-01-20T09:46:06.160Z,29.48
2019-01-20T09:48:35.248Z,31.73
2019-01-20T09:51:04.532Z,32.90
2019-01-20T09:53:33.633Z,28.02
2019-01-20T09:56:02.848Z,30.17
2019-01-20T09:58:32.012Z,29.82
2019-01-20T10:01:01.128Z,30.92
2019-01-20T10:03:30.320Z,31.05
2019-01-20T10:05:59.479Z,34.53
2019-01-20T10:08:28.589Z,32.28
2019-01-20T10:10:57.750Z,30.32
2019-01-20T10:13:28.204Z,31.35
2019-01-20T10:15:57.319Z,32.13
2019-01-20T10:18:26.427Z,59.25
2019-01-20T10:20:55.520Z,69.45
2019-01-20T10:23:24.707Z,56.42
2019-01-20T10:25:53.964Z,35.28
2019-01-20T10:28:25.228Z,27.95
2019-01-20T10:30:54.424Z,28.05
2019-01-20T10:33:23.585Z,32.83
2019-01-20T10:36:41.798Z,39.65
2019-01-20T10:40:15.431Z,34.03
2019-01-20T10:43:02.687Z,30.40
2019-01-20T11:02:18.695Z,34.25
2019-01-20T11:05:04.415Z,32.25
2019-01-20T11:08:17.159Z,28.83
2019-01-20T11:11:11.528Z,29.40
2019-01-20T11:13:42.103Z,33.53
2019-01-20T11:16:11.277Z,36.05
2019-01-20T11:18:55.837Z,30.37
2019-01-20T11:21:25.170Z,29.92
2019-01-20T11:23:54.496Z,29.52
2019-01-20T11:26:23.860Z,34.70
2019-01-20T11:28:53.783Z,29.23
2019-01-20T11:31:23.246Z,29.77
2019-01-20T11:33:53.174Z,29.80
2019-01-20T11:36:24.112Z,32.23
2019-01-20T11:39:01.936Z,38.83
2019-01-20T11:41:32.399Z,26.17
2019-01-20T11:50:24.966Z,35.33
2019-01-20T11:55:36.707Z,29.90
2019-01-20T12:00:42.718Z,26.60
2019-01-20T12:03:12.085Z,29.27
2019-01-20T12:11:54.291Z,32.10
2019-01-20T12:14:26.005Z,23.60
2019-01-20T12:25:20.742Z,25.02
2019-01-20T12:45:51.594Z,25.77
2019-01-20T12:51:42.365Z,25.55
2019-01-20T13:01:06.730Z,28.87
2019-01-20T13:03:38.923Z,22.65
2019-01-20T13:06:08.394Z,23.70
2019-01-20T13:06:35.375Z,22.02
2019-01-20T13:08:37.617Z,20.25
2019-01-20T13:11:06.858Z,19.62
2019-01-20T13:13:36.070Z,18.77
2019-01-20T13:16:05.538Z,20.97
2019-01-20T13:18:40.806Z,21.85
2019-01-20T13:24:40.671Z,22.58
2019-01-20T13:27:41.148Z,27.35
2019-01-20T13:31:15.596Z,19.00
2019-01-20T13:34:47.210Z,23.80
2019-01-20T13:41:36.050Z,23.05
2019-01-20T13:44:15.982Z,22.27
2019-01-20T13:47:35.695Z,22.10
2019-01-20T13:51:01.766Z,25.57
2019-01-20T13:54:32.879Z,21.17
2019-01-20T13:57:00.269Z,19.92
2019-01-20T13:59:45.401Z,20.60
2019-01-20T14:06:16.372Z,15.10
2019-01-20T14:09:22.517Z,13.68
2019-01-20T14:12:02.679Z,17.20
2019-01-20T14:27:31.021Z,20.12
2019-01-20T14:30:18.644Z,15.95
2019-01-20T15:23:33.143Z,22.05
2019-01-20T16:03:14.198Z,20.65
2019-01-20T16:05:43.784Z,22.95
2019-01-20T16:08:24.252Z,19.62
2019-01-20T16:17:59.644Z,20.12
2019-01-20T16:20:32.825Z,22.35
2019-01-20T16:23:03.354Z,25.95
2019-01-20T16:25:36.924Z,17.87
2019-01-20T16:28:18.089Z,18.20
2019-01-20T16:31:45.228Z,18.57
2019-01-20T16:34:25.361Z,24.10
2019-01-20T16:51:13.393Z,19.92
2019-01-20T16:53:44.688Z,20.25
2019-01-20T16:57:17.577Z,28.45
2019-01-20T17:09:53.070Z,18.52
2019-01-20T17:12:24.752Z,17.20
2019-01-20T17:14:53.960Z,21.50
2019-01-20T17:17:23.295Z,23.35
2019-01-20T17:19:53.541Z,20.75
2019-01-20T17:22:26.013Z,19.98
2019-01-20T17:25:04.249Z,24.63
2019-01-20T17:27:33.843Z,21.55
2019-01-20T17:30:03.725Z,24.02
2019-01-20T17:32:34.327Z,26.30
2019-01-20T17:35:05.406Z,22.82
2019-01-20T17:37:34.728Z,22.15
2019-01-20T17:40:05.336Z,22.02
2019-01-20T17:42:39.123Z,25.17
2019-01-20T17:45:50.810Z,35.98
2019-01-20T17:49:40.292Z,25.70
2019-01-20T18:00:13.523Z,25.60
2019-01-20T18:02:48.652Z,24.52
2019-01-20T18:05:23.357Z,26.65
2019-01-20T18:07:56.570Z,22.62
2019-01-20T18:10:25.841Z,24.52
2019-01-20T18:12:55.175Z,24.55
2019-01-20T18:15:30.243Z,25.92
2019-01-20T18:18:02.670Z,23.05
2019-01-20T18:21:07.832Z,23.67
2019-01-20T18:23:37.010Z,22.17
2019-01-20T18:26:07.330Z,24.63
2019-01-20T18:36:35.259Z,23.52
2019-01-20T18:39:28.650Z,20.23
2019-01-20T18:42:14.516Z,22.73
2019-01-20T18:51:27.750Z,24.52
2019-01-20T18:57:47.390Z,26.87
2019-01-20T19:00:22.144Z,25.27
2019-01-20T19:02:51.446Z,23.22
2019-01-20T19:05:20.781Z,24.02
2019-01-20T19:07:49.959Z,24.05
2019-01-20T19:10:19.232Z,28.65
2019-01-20T19:12:48.571Z,21.93
2019-01-20T19:15:18.607Z,51.23
2019-01-20T19:17:47.800Z,34.20
2019-01-20T19:20:20.902Z,26.62
2019-01-20T19:22:51.706Z,26.82
2019-01-20T19:25:21.088Z,26.05
2019-01-20T19:27:50.256Z,28.47
2019-01-20T19:30:27.474Z,25.90
2019-01-20T19:32:56.649Z,28.75
2019-01-20T19:35:26.528Z,25.72
2019-01-20T19:37:56.801Z,26.65
2019-01-20T19:40:26.155Z,24.40
2019-01-20T19:42:57.001Z,27.55
2019-01-20T19:45:27.142Z,24.75
2019-01-20T19:48:05.208Z,33.90
2019-01-20T19:50:34.569Z,28.83
2019-01-20T19:53:03.856Z,28.75
2019-01-20T19:55:33.609Z,25.88
2019-01-20T19:58:04.227Z,26.02
2019-01-20T20:00:33.495Z,24.55
2019-01-20T20:03:02.869Z,26.42
2019-01-20T20:05:34.440Z,29.25
2019-01-20T20:08:03.965Z,24.95
2019-01-20T20:10:33.430Z,26.42
2019-01-20T20:13:02.585Z,29.42
2019-01-20T20:15:31.899Z,29.57
2019-01-20T20:18:01.068Z,58.58
2019-01-20T20:20:30.255Z,34.43
2019-01-20T20:23:00.973Z,26.35
2019-01-20T20:25:31.494Z,26.30
2019-01-20T20:28:00.678Z,23.07
2019-01-20T20:30:32.235Z,25.15
2019-01-20T20:33:01.569Z,25.62
2019-01-20T20:35:30.955Z,30.20
2019-01-20T20:38:00.163Z,26.50
2019-01-20T20:40:29.507Z,28.30
2019-01-20T20:42:58.672Z,28.52
2019-01-20T20:45:28.267Z,30.30
2019-01-20T20:47:57.552Z,32.03
2019-01-20T20:50:26.658Z,29.07
2019-01-20T20:52:56.050Z,30.20
2019-01-20T20:55:25.332Z,28.47
2019-01-20T20:57:54.456Z,31.17
2019-01-20T21:00:26.432Z,28.10
2019-01-20T21:02:55.624Z,28.35
2019-01-20T21:05:24.855Z,32.10
2019-01-20T21:07:54.065Z,34.35
2019-01-20T21:10:23.312Z,34.58
2019-01-20T21:12:52.502Z,30.95
2019-01-20T21:15:21.704Z,26.85
2019-01-20T21:17:50.808Z,31.15
2019-01-20T21:20:20.977Z,28.05
2019-01-20T21:22:50.251Z,27.30
2019-01-20T21:25:19.525Z,33.90
2019-01-20T21:27:48.809Z,31.87
2019-01-20T21:30:20.169Z,32.25
2019-01-20T21:32:49.431Z,27.37
2019-01-20T21:35:19.293Z,34.88
2019-01-20T21:37:49.817Z,32.73
2019-01-20T21:40:19.440Z,30.65
2019-01-20T21:42:48.818Z,31.93
2019-01-20T21:45:18.156Z,34.08
2019-01-20T21:47:47.318Z,30.75
2019-01-20T21:50:21.979Z,31.60
2019-01-20T21:52:51.434Z,32.98
2019-01-20T21:55:20.756Z,29.55
2019-01-20T21:57:50.420Z,33.75
2019-01-20T22:00:21.707Z,31.62
2019-01-20T22:02:51.048Z,31.05
2019-01-20T22:05:20.323Z,33.78
2019-01-20T22:07:49.437Z,31.75
2019-01-20T22:10:20.039Z,27.85
2019-01-20T22:12:49.292Z,29.65
2019-01-20T22:15:19.921Z,32.60
2019-01-20T22:17:49.664Z,35.60
2019-01-20T22:20:20.383Z,39.33
2019-01-20T22:22:51.240Z,37.55
2019-01-20T22:25:20.345Z,40.40
2019-01-20T22:27:49.411Z,38.48
2019-01-20T22:30:36.401Z,39.92
2019-01-20T22:33:07.093Z,40.63
2019-01-20T22:35:36.187Z,44.40
2019-01-20T22:38:05.288Z,43.87
2019-01-20T22:40:34.463Z,36.48
2019-01-20T22:43:03.556Z,37.03
2019-01-20T22:45:32.708Z,42.05
2019-01-20T22:48:01.808Z,34.10
2019-01-20T22:50:31.025Z,44.60
2019-01-20T22:53:00.268Z,38.02
2019-01-20T22:55:29.437Z,41.28
2019-01-20T22:57:58.551Z,36.40
2019-01-20T23:00:50.885Z,32.20
2019-01-20T23:03:20.171Z,36.63
2019-01-20T23:05:51.468Z,42.53
2019-01-20T23:08:20.662Z,38.67
2019-01-20T23:10:49.852Z,40.73
2019-01-20T23:13:19.018Z,37.67
2019-01-20T23:15:48.265Z,38.50
2019-01-20T23:18:17.505Z,39.98
2019-01-20T23:20:46.715Z,35.35
2019-01-20T23:23:15.800Z,40.92
2019-01-20T23:25:44.909Z,39.73
2019-01-20T23:28:14.007Z,41.02
2019-01-20T23:30:43.165Z,40.33
2019-01-20T23:33:12.348Z,38.17
2019-01-20T23:35:41.436Z,43.38
2019-01-20T23:38:10.645Z,37.88
2019-01-20T23:40:39.947Z,37.38
2019-01-20T23:43:09.044Z,35.50
2019-01-20T23:45:38.213Z,38.33
2019-01-20T23:48:07.379Z,40.10
2019-01-20T23:50:36.473Z,36.05
2019-01-20T23:53:05.721Z,37.63
2019-01-20T23:55:35.402Z,35.65
2019-01-20T23:58:05.512Z,40.63
